Time;durP1;ratioP1;P1;durP2;ratioP2;P2;SDS_P1;SDS_P2;PMS_P1;PMS_P2;Temp;Humidity;BMP_temperature;BMP_pressure;BME280_temperature;BME280_humidity;BME280_pressure;Samples;Min_cycle;Max_cycle;Signal;HPM_P1;HPM_P2
2022/02/12 00:00:27;;;;;;;5.90;3.70;;;3.50;99.90;;;;;;4973108;28;20968;-69
2022/02/12 00:02:53;;;;;;;5.77;2.73;;;3.50;99.90;;;;;;4989978;28;20829;-69
2022/02/12 00:05:26;;;;;;;4.10;2.00;;;3.50;99.90;;;;;;4970053;28;20960;-69
2022/02/12 00:07:54;;;;;;;2.10;1.87;;;3.40;99.90;;;;;;4986889;28;20462;-69
2022/02/12 00:10:20;;;;;;;6.20;2.40;;;3.30;99.90;;;;;;4989313;28;20453;-68
2022/02/12 00:12:47;;;;;;;7.87;3.40;;;3.30;99.90;;;;;;4987281;28;20559;-69
2022/02/12 00:15:12;;;;;;;5.20;2.23;;;3.30;99.90;;;;;;4986297;28;20464;-68
2022/02/12 00:17:38;;;;;;;4.40;2.50;;;3.40;99.90;;;;;;4990514;28;20465;-69
2022/02/12 00:20:05;;;;;;;4.77;2.13;;;3.40;99.90;;;;;;4987144;28;20582;-69
2022/02/12 00:22:31;;;;;;;3.80;3.00;;;3.40;99.90;;;;;;4971411;28;20299;-69
2022/02/12 00:24:58;;;;;;;6.20;2.47;;;3.30;99.90;;;;;;4986325;28;20465;-69
2022/02/12 00:27:23;;;;;;;6.00;1.77;;;3.20;99.90;;;;;;4972349;28;20456;-68
2022/02/12 00:29:49;;;;;;;6.10;2.13;;;3.20;99.90;;;;;;4987559;28;20456;-68
2022/02/12 00:32:15;;;;;;;2.17;1.67;;;3.30;99.90;;;;;;4971019;28;20214;-69
2022/02/12 00:34:40;;;;;;;3.90;1.93;;;3.30;99.90;;;;;;4972118;28;20710;-68
2022/02/12 00:37:06;;;;;;;3.13;1.20;;;3.30;99.90;;;;;;5000482;28;20226;-70
2022/02/12 00:39:32;;;;;;;3.77;1.73;;;3.30;99.90;;;;;;4986526;28;20221;-69
2022/02/12 00:41:58;;;;;;;2.47;1.80;;;3.30;99.90;;;;;;4986941;28;20206;-69
2022/02/12 00:44:24;;;;;;;5.90;2.70;;;3.30;99.90;;;;;;4996628;28;20232;-69
2022/02/12 00:46:51;;;;;;;3.60;2.43;;;3.30;99.90;;;;;;4992235;28;20450;-68
2022/02/12 00:49:17;;;;;;;4.80;2.47;;;3.30;99.90;;;;;;4991928;28;20305;-69
2022/02/12 00:51:43;;;;;;;4.27;2.30;;;3.30;99.90;;;;;;4989817;28;20523;-69
2022/02/12 00:54:09;;;;;;;2.13;1.87;;;3.20;99.90;;;;;;4987745;28;20225;-68
2022/02/12 00:56:35;;;;;;;3.87;2.57;;;3.20;99.90;;;;;;4980925;28;20450;-68
2022/02/12 00:59:00;;;;;;;5.27;2.70;;;3.20;99.90;;;;;;4989793;28;20217;-68
2022/02/12 01:01:26;;;;;;;6.33;2.67;;;3.20;99.90;;;;;;4998898;28;20217;-68
2022/02/12 01:03:53;;;;;;;7.90;2.33;;;3.20;99.90;;;;;;5010612;28;20689;-69
2022/02/12 01:06:20;;;;;;;4.23;2.20;;;3.20;99.90;;;;;;4989705;28;20236;-69
2022/02/12 01:08:46;;;;;;;3.87;1.77;;;3.20;99.90;;;;;;4989977;28;21047;-69
2022/02/12 01:11:13;;;;;;;4.87;2.10;;;3.20;99.90;;;;;;4988218;28;20457;-68
2022/02/12 01:13:40;;;;;;;7.57;2.97;;;3.20;99.90;;;;;;4977471;28;20470;-69
2022/02/12 01:16:06;;;;;;;2.47;1.90;;;3.20;99.90;;;;;;4988243;28;20457;-69
2022/02/12 01:18:32;;;;;;;5.80;2.10;;;3.20;99.90;;;;;;4988751;28;21078;-68
2022/02/12 01:20:58;;;;;;;4.47;2.43;;;3.20;99.90;;;;;;4989089;28;20540;-68
2022/02/12 01:23:24;;;;;;;3.40;1.90;;;3.10;99.90;;;;;;4988907;28;20292;-69
2022/02/12 01:25:50;;;;;;;9.10;2.30;;;3.20;99.90;;;;;;5006383;28;20245;-68
2022/02/12 01:28:17;;;;;;;2.10;1.90;;;3.10;99.90;;;;;;4983403;28;20229;-68
2022/02/12 01:30:44;;;;;;;3.10;2.30;;;3.10;99.90;;;;;;4991220;28;20536;-69
2022/02/12 01:33:11;;;;;;;6.80;2.87;;;3.10;99.90;;;;;;4980768;28;20495;-68
2022/02/12 01:35:37;;;;;;;3.80;2.50;;;3.10;99.90;;;;;;4987011;28;20482;-69
2022/02/12 01:38:03;;;;;;;2.90;2.03;;;3.00;99.90;;;;;;4999691;28;20489;-69
2022/02/12 01:40:29;;;;;;;3.50;2.10;;;3.00;99.90;;;;;;4988875;28;20221;-68
2022/02/12 01:42:56;;;;;;;3.83;2.60;;;3.10;99.90;;;;;;4989339;28;20476;-69
2022/02/12 01:45:22;;;;;;;2.10;1.50;;;3.00;99.90;;;;;;4998791;28;20695;-68
2022/02/12 01:47:51;;;;;;;4.07;2.07;;;3.00;99.90;;;;;;5010020;28;20471;-68
2022/02/12 01:50:19;;;;;;;2.40;2.10;;;2.90;99.90;;;;;;4997611;28;20222;-68
2022/02/12 01:52:45;;;;;;;2.33;2.10;;;2.90;99.90;;;;;;4990430;28;20504;-69
2022/02/12 01:55:12;;;;;;;3.57;2.43;;;2.90;99.90;;;;;;4990758;28;20510;-68
2022/02/12 01:57:38;;;;;;;6.50;2.60;;;2.90;99.90;;;;;;4991618;28;20465;-69
2022/02/12 02:00:06;;;;;;;3.20;2.20;;;2.80;99.90;;;;;;4997501;28;20449;-68
2022/02/12 02:02:38;;;;;;;2.10;1.80;;;2.90;99.90;;;;;;4986780;28;20457;-68
2022/02/12 02:05:15;;;;;;;3.07;2.00;;;2.80;99.90;;;;;;4993314;28;20818;-68
2022/02/12 02:07:43;;;;;;;6.40;1.80;;;2.80;99.90;;;;;;4996156;28;20535;-69
2022/02/12 02:10:11;;;;;;;3.13;2.30;;;2.60;99.90;;;;;;4989967;28;20471;-68
2022/02/12 02:12:37;;;;;;;4.00;2.10;;;2.60;99.90;;;;;;4973070;28;20656;-69
2022/02/12 02:15:04;;;;;;;2.87;2.03;;;2.70;99.90;;;;;;4987182;28;20468;-69
2022/02/12 02:17:30;;;;;;;2.70;1.80;;;2.70;99.90;;;;;;4988716;28;20484;-69
2022/02/12 02:19:57;;;;;;;2.50;1.87;;;2.70;99.90;;;;;;4989471;28;20872;-68
2022/02/12 02:22:28;;;;;;;3.67;2.17;;;2.70;99.90;;;;;;4985128;28;20538;-69
2022/02/12 02:24:54;;;;;;;3.43;2.30;;;2.70;99.90;;;;;;4988664;28;20230;-68
2022/02/12 02:27:21;;;;;;;2.23;2.10;;;2.70;99.90;;;;;;4989260;28;20513;-68
2022/02/12 02:29:48;;;;;;;3.20;2.00;;;2.70;99.90;;;;;;4998266;28;20234;-68
2022/02/12 02:32:14;;;;;;;2.90;2.10;;;2.70;99.90;;;;;;4988253;28;20472;-68
2022/02/12 02:35:07;;;;;;;2.53;2.27;;;2.70;99.90;;;;;;4988483;28;20464;-69
2022/02/12 02:37:32;;;;;;;3.27;1.70;;;2.70;99.90;;;;;;4969821;28;20470;-68
2022/02/12 02:39:58;;;;;;;2.33;1.80;;;2.60;99.90;;;;;;5004283;28;20527;-69
2022/02/12 02:42:24;;;;;;;2.50;2.00;;;2.60;99.90;;;;;;5001409;28;20214;-68
2022/02/12 02:44:50;;;;;;;3.50;2.43;;;2.60;99.90;;;;;;4995155;28;20659;-68
2022/02/12 02:50:02;;;;;;;11.43;2.60;;;2.50;99.90;;;;;;5010198;28;20963;-69
2022/02/12 02:57:58;;;;;;;2.83;2.37;;;2.50;99.90;;;;;;4993622;28;20461;-68
2022/02/12 03:00:24;;;;;;;2.60;2.30;;;2.50;99.90;;;;;;4991433;28;20951;-68
2022/02/12 03:02:50;;;;;;;2.53;2.20;;;2.50;99.90;;;;;;4989145;28;20257;-68
2022/02/12 03:05:15;;;;;;;4.03;2.67;;;2.50;99.90;;;;;;4991527;28;20233;-68
2022/02/12 03:07:41;;;;;;;4.27;2.70;;;2.40;99.90;;;;;;4996296;28;20224;-69
2022/02/12 03:10:08;;;;;;;5.07;2.63;;;2.30;99.90;;;;;;4991707;28;20236;-69
2022/02/12 03:12:34;;;;;;;4.63;2.57;;;2.40;99.90;;;;;;4993383;28;20298;-68
2022/02/12 03:15:01;;;;;;;3.83;2.40;;;2.40;99.90;;;;;;5000352;28;20469;-69
2022/02/12 03:17:27;;;;;;;5.47;2.50;;;2.40;99.90;;;;;;4988878;28;20484;-69
2022/02/12 03:19:53;;;;;;;4.30;2.60;;;2.30;99.90;;;;;;4991371;28;20458;-69
2022/02/12 03:22:18;;;;;;;4.20;2.43;;;2.30;99.90;;;;;;4991488;28;20284;-68
2022/02/12 03:24:44;;;;;;;4.23;2.40;;;2.40;99.90;;;;;;4998493;28;20453;-69
2022/02/12 03:27:10;;;;;;;6.03;2.83;;;2.40;99.90;;;;;;4992045;28;20245;-68
2022/02/12 03:29:36;;;;;;;9.20;2.97;;;2.40;99.90;;;;;;5010891;28;20225;-68
2022/02/12 03:32:01;;;;;;;3.30;2.10;;;2.40;99.90;;;;;;4996256;28;20228;-68
2022/02/12 03:34:27;;;;;;;2.77;2.10;;;2.30;99.90;;;;;;4992151;28;20221;-68
2022/02/12 03:36:53;;;;;;;7.53;2.90;;;2.30;99.90;;;;;;4992466;28;20213;-68
2022/02/12 03:39:18;;;;;;;4.50;2.57;;;2.30;99.90;;;;;;4998247;28;20249;-68
2022/02/12 03:41:44;;;;;;;3.50;2.10;;;2.30;99.90;;;;;;4991268;28;20229;-69
2022/02/12 03:44:10;;;;;;;3.70;2.47;;;2.30;99.90;;;;;;4990995;28;20300;-68
2022/02/12 03:46:35;;;;;;;4.40;2.30;;;2.30;99.90;;;;;;4981936;28;20229;-69
2022/02/12 03:49:01;;;;;;;4.90;2.10;;;2.20;99.90;;;;;;4990250;28;20259;-69
2022/02/12 03:51:27;;;;;;;6.23;1.87;;;2.20;99.90;;;;;;4999316;28;20217;-69
2022/02/12 03:53:52;;;;;;;3.40;2.23;;;2.20;99.90;;;;;;5001008;28;20225;-68
2022/02/12 03:56:18;;;;;;;3.10;1.90;;;2.20;99.90;;;;;;4987816;28;20361;-68
2022/02/12 03:58:47;;;;;;;3.57;2.03;;;2.20;99.90;;;;;;4983658;28;20226;-68
2022/02/12 04:01:13;;;;;;;5.80;2.07;;;2.20;99.90;;;;;;4993736;28;20214;-68
2022/02/12 04:03:39;;;;;;;5.40;2.10;;;2.10;99.90;;;;;;5011919;28;20452;-68
2022/02/12 04:06:04;;;;;;;6.30;1.80;;;2.10;99.90;;;;;;4993790;28;20716;-68
2022/02/12 04:08:30;;;;;;;2.40;2.07;;;2.10;99.90;;;;;;4992794;28;20216;-69
2022/02/12 04:10:56;;;;;;;3.23;2.50;;;2.10;99.90;;;;;;5011969;28;20232;-69
2022/02/12 04:13:22;;;;;;;2.50;1.90;;;2.10;99.90;;;;;;5007222;28;20245;-68
2022/02/12 04:15:48;;;;;;;4.90;2.50;;;2.10;99.90;;;;;;4993650;28;20545;-68
2022/02/12 04:18:15;;;;;;;11.03;1.70;;;2.00;99.90;;;;;;5006328;28;20710;-68
2022/02/12 04:20:41;;;;;;;4.17;2.40;;;2.00;99.90;;;;;;4996334;28;20217;-69
2022/02/12 04:23:08;;;;;;;2.97;2.00;;;2.00;99.90;;;;;;5009969;28;20460;-69
2022/02/12 04:25:33;;;;;;;2.47;2.10;;;2.00;99.90;;;;;;4998737;28;20460;-68
2022/02/12 04:28:05;;;;;;;2.07;1.40;;;2.00;99.90;;;;;;4997926;28;20536;-69
2022/02/12 04:30:30;;;;;;;4.33;2.70;;;2.00;99.90;;;;;;5005504;28;20467;-70
2022/02/12 04:32:57;;;;;;;4.07;1.90;;;2.00;99.90;;;;;;4994892;28;20445;-68
2022/02/12 04:35:22;;;;;;;1.70;1.60;;;2.00;99.90;;;;;;4993081;28;20218;-68
2022/02/12 04:37:48;;;;;;;1.70;1.60;;;2.00;99.90;;;;;;5002440;28;21069;-68
2022/02/12 04:40:14;;;;;;;4.00;1.80;;;2.00;99.90;;;;;;4990791;28;20221;-67
2022/02/12 04:42:40;;;;;;;3.10;2.60;;;1.90;99.90;;;;;;4990074;28;20256;-68
2022/02/12 04:45:06;;;;;;;4.63;2.40;;;1.90;99.90;;;;;;4993976;28;20657;-69
2022/02/12 04:47:32;;;;;;;4.30;2.30;;;1.90;99.90;;;;;;4991527;28;20461;-68
2022/02/12 04:49:58;;;;;;;3.73;1.80;;;1.90;99.90;;;;;;4996333;28;20463;-69
2022/02/12 04:52:25;;;;;;;4.43;3.27;;;1.90;99.90;;;;;;4990835;28;20213;-68
2022/02/12 04:54:50;;;;;;;4.40;1.80;;;1.90;99.90;;;;;;4990002;28;20473;-68
2022/02/12 04:57:16;;;;;;;2.93;1.97;;;1.90;99.90;;;;;;4986247;28;20239;-69
2022/02/12 04:59:42;;;;;;;1.70;1.57;;;1.90;99.90;;;;;;4971851;28;20246;-69
2022/02/12 05:02:08;;;;;;;6.67;2.93;;;1.90;99.90;;;;;;4990018;28;20826;-69
2022/02/12 05:04:34;;;;;;;2.97;1.97;;;1.90;99.90;;;;;;4989059;28;20225;-68
2022/02/12 05:07:00;;;;;;;4.60;2.70;;;1.80;99.90;;;;;;4992049;28;20225;-69
2022/02/12 05:09:26;;;;;;;3.17;2.30;;;1.80;99.90;;;;;;5004848;28;21973;-69
2022/02/12 05:11:52;;;;;;;3.17;2.00;;;1.80;99.90;;;;;;4989660;28;20222;-68
2022/02/12 05:14:19;;;;;;;5.90;3.27;;;1.80;99.90;;;;;;4973166;28;20524;-68
2022/02/12 05:16:45;;;;;;;4.07;2.97;;;1.80;99.90;;;;;;4989439;28;20644;-69
2022/02/12 05:19:11;;;;;;;4.00;3.10;;;1.80;99.90;;;;;;4988586;28;20239;-67
2022/02/12 05:21:37;;;;;;;4.43;2.13;;;1.70;99.90;;;;;;5005870;28;20457;-68
2022/02/12 05:24:03;;;;;;;5.83;2.90;;;1.70;99.90;;;;;;4973154;28;20236;-68
2022/02/12 05:26:30;;;;;;;2.93;1.90;;;1.70;99.90;;;;;;4991137;28;20826;-68
2022/02/12 05:28:56;;;;;;;3.00;2.20;;;1.70;99.90;;;;;;5000610;28;20457;-68
2022/02/12 05:31:22;;;;;;;5.70;3.07;;;1.70;99.90;;;;;;4994834;28;20464;-68
2022/02/12 05:33:47;;;;;;;7.43;2.70;;;1.60;99.90;;;;;;4990524;28;20238;-68
2022/02/12 05:36:14;;;;;;;3.20;2.70;;;1.60;99.90;;;;;;4987945;28;20471;-68
2022/02/12 05:38:40;;;;;;;3.70;2.77;;;1.60;99.90;;;;;;4997602;28;20233;-68
2022/02/12 05:41:07;;;;;;;4.70;2.53;;;1.60;99.90;;;;;;5007618;28;20456;-68
2022/02/12 05:43:33;;;;;;;5.53;2.27;;;1.60;99.90;;;;;;4973969;28;20462;-68
2022/02/12 05:46:00;;;;;;;4.13;2.70;;;1.60;99.90;;;;;;4971261;28;20613;-69
2022/02/12 05:48:26;;;;;;;4.93;3.40;;;1.60;99.90;;;;;;4979441;28;20268;-69
2022/02/12 05:50:53;;;;;;;9.50;2.50;;;1.60;99.90;;;;;;5005213;28;20985;-69
2022/02/12 05:53:20;;;;;;;6.17;3.10;;;1.60;99.90;;;;;;4991155;28;21009;-68
2022/02/12 05:55:45;;;;;;;4.40;2.80;;;1.60;99.90;;;;;;5009958;28;20479;-68
2022/02/12 05:58:11;;;;;;;3.87;2.77;;;1.50;99.90;;;;;;4997292;28;20488;-68
2022/02/12 06:00:37;;;;;;;4.47;2.87;;;1.60;99.90;;;;;;4975855;28;20221;-68
2022/02/12 06:03:03;;;;;;;5.73;3.23;;;1.60;99.90;;;;;;4993194;28;20453;-69
2022/02/12 06:05:28;;;;;;;5.03;2.80;;;1.50;99.90;;;;;;5007235;28;20229;-68
2022/02/12 06:07:54;;;;;;;12.03;3.27;;;1.50;99.90;;;;;;5010205;28;20220;-68
2022/02/12 06:10:25;;;;;;;3.33;2.50;;;1.50;99.90;;;;;;5008264;28;20225;-68
2022/02/12 06:12:52;;;;;;;6.60;3.17;;;1.50;99.90;;;;;;5000729;28;20571;-68
2022/02/12 06:15:17;;;;;;;7.43;3.67;;;1.50;99.90;;;;;;4988105;28;20465;-68
2022/02/12 06:17:43;;;;;;;4.43;3.00;;;1.50;99.90;;;;;;4986739;28;20982;-68
2022/02/12 06:20:10;;;;;;;4.00;3.00;;;1.40;99.90;;;;;;4980558;28;20308;-67
2022/02/12 06:22:35;;;;;;;4.60;2.77;;;1.40;99.90;;;;;;4991464;28;20221;-68
2022/02/12 06:25:01;;;;;;;5.73;3.50;;;1.40;99.90;;;;;;5008784;28;20468;-68
2022/02/12 06:27:27;;;;;;;4.30;3.37;;;1.40;99.90;;;;;;5006896;28;20229;-68
2022/02/12 06:29:54;;;;;;;6.00;3.87;;;1.40;99.90;;;;;;5005422;28;20228;-68
2022/02/12 06:32:20;;;;;;;9.50;3.27;;;1.40;99.90;;;;;;4995139;28;20229;-66
2022/02/12 06:34:46;;;;;;;6.40;3.77;;;1.30;99.90;;;;;;4991940;28;20464;-68
2022/02/12 06:37:12;;;;;;;7.17;4.20;;;1.30;99.90;;;;;;4988765;28;20462;-67
2022/02/12 06:39:37;;;;;;;7.23;3.80;;;1.30;99.90;;;;;;4992888;28;20238;-68
2022/02/12 06:42:03;;;;;;;7.20;4.43;;;1.30;99.90;;;;;;5000282;28;20675;-68
2022/02/12 06:44:29;;;;;;;5.30;4.00;;;1.20;99.90;;;;;;5011109;28;20367;-67
2022/02/12 06:46:55;;;;;;;5.70;4.67;;;1.20;99.90;;;;;;4992271;28;20551;-68
2022/02/12 06:49:21;;;;;;;8.67;5.60;;;1.20;99.90;;;;;;4988701;28;20225;-68
2022/02/12 06:51:47;;;;;;;8.20;4.73;;;1.20;99.90;;;;;;4976229;28;20245;-69
2022/02/12 06:54:12;;;;;;;6.03;4.97;;;1.20;99.90;;;;;;4972355;28;20992;-68
2022/02/12 06:56:38;;;;;;;8.93;5.13;;;1.20;99.90;;;;;;4987682;28;20229;-69
2022/02/12 06:59:04;;;;;;;11.37;5.37;;;1.20;99.90;;;;;;4998852;28;20782;-69
2022/02/12 07:01:29;;;;;;;7.57;4.90;;;1.20;99.90;;;;;;4985303;28;20695;-68
2022/02/12 07:03:56;;;;;;;7.80;5.67;;;1.20;99.90;;;;;;4990154;28;20249;-68
2022/02/12 07:06:24;;;;;;;10.10;6.10;;;1.20;99.90;;;;;;4999132;28;20218;-68
2022/02/12 07:08:51;;;;;;;11.43;5.83;;;1.10;99.90;;;;;;5012064;28;20466;-68
2022/02/12 07:11:18;;;;;;;6.93;4.60;;;1.10;99.90;;;;;;4995779;28;20468;-68
2022/02/12 07:13:44;;;;;;;9.13;5.60;;;1.10;99.90;;;;;;4991634;28;20457;-69
2022/02/12 07:16:09;;;;;;;7.33;4.90;;;1.10;99.90;;;;;;4991114;28;20986;-68
2022/02/12 07:18:35;;;;;;;8.10;4.80;;;1.10;99.90;;;;;;5000905;28;20461;-68
2022/02/12 07:21:01;;;;;;;12.43;6.80;;;1.10;99.90;;;;;;4991337;28;20225;-67
2022/02/12 07:23:26;;;;;;;19.80;9.73;;;1.10;99.90;;;;;;4987738;28;20252;-68
2022/02/12 07:25:52;;;;;;;9.67;5.80;;;1.10;99.90;;;;;;4991382;28;20209;-68
2022/02/12 07:28:18;;;;;;;7.13;4.47;;;1.10;99.90;;;;;;4994674;28;20226;-66
2022/02/12 07:30:44;;;;;;;6.80;5.37;;;1.10;99.90;;;;;;4995831;28;20218;-67
2022/02/12 07:33:10;;;;;;;14.63;6.50;;;1.10;99.90;;;;;;4989528;28;20500;-68
2022/02/12 07:35:36;;;;;;;16.03;6.83;;;1.10;99.90;;;;;;4991549;28;20491;-68
2022/02/12 07:38:02;;;;;;;19.20;7.37;;;1.10;99.90;;;;;;4990022;28;20544;-68
2022/02/12 07:40:28;;;;;;;13.53;7.60;;;1.10;99.90;;;;;;4989648;28;20676;-68
2022/02/12 07:42:54;;;;;;;12.50;6.47;;;1.10;99.90;;;;;;4990322;28;20293;-68
2022/02/12 07:45:20;;;;;;;8.00;5.20;;;1.10;99.90;;;;;;4992257;28;20978;-68
2022/02/12 07:47:46;;;;;;;8.23;4.80;;;1.10;99.90;;;;;;4997532;28;20886;-68
2022/02/12 07:50:14;;;;;;;7.03;5.10;;;1.10;99.90;;;;;;4990985;28;20461;-68
2022/02/12 07:52:42;;;;;;;4.67;3.97;;;1.10;99.90;;;;;;4991147;28;20503;-68
2022/02/12 07:55:13;;;;;;;8.90;4.70;;;1.20;99.90;;;;;;4992373;28;20889;-68
2022/02/12 07:57:39;;;;;;;12.97;4.27;;;1.20;99.90;;;;;;4991097;28;20468;-69
2022/02/12 08:00:06;;;;;;;7.70;4.10;;;1.20;99.90;;;;;;4991258;28;20457;-68
2022/02/12 08:02:37;;;;;;;4.93;3.20;;;1.20;99.90;;;;;;4987029;28;20898;-68
2022/02/12 08:05:03;;;;;;;6.70;3.70;;;1.20;99.90;;;;;;4982450;28;20552;-68
2022/02/12 08:07:29;;;;;;;6.93;4.30;;;1.20;99.90;;;;;;4980602;28;20222;-68
2022/02/12 08:09:59;;;;;;;5.07;3.63;;;1.30;99.90;;;;;;4992192;28;20526;-68
2022/02/12 08:12:26;;;;;;;8.93;4.27;;;1.30;99.90;;;;;;4972891;28;20222;-68
2022/02/12 08:14:57;;;;;;;8.70;3.97;;;1.20;99.90;;;;;;5009225;28;20460;-68
2022/02/12 08:17:24;;;;;;;10.93;4.30;;;1.30;99.90;;;;;;4995715;28;20497;-69
2022/02/12 08:19:51;;;;;;;17.37;6.30;;;1.30;99.90;;;;;;5002451;28;20458;-69
2022/02/12 08:22:18;;;;;;;11.47;5.93;;;1.30;99.90;;;;;;5002940;28;20990;-69
2022/02/12 08:24:45;;;;;;;6.90;4.40;;;1.30;99.90;;;;;;4990469;28;20449;-70
2022/02/12 08:27:11;;;;;;;7.67;3.90;;;1.40;99.90;;;;;;5005673;28;20472;-69
2022/02/12 08:29:41;;;;;;;11.00;5.80;;;1.40;99.90;;;;;;4997398;28;20538;-70
2022/02/12 08:32:08;;;;;;;8.30;4.43;;;1.40;99.90;;;;;;4972050;28;20222;-70
2022/02/12 08:34:35;;;;;;;7.27;4.57;;;1.40;99.90;;;;;;4978589;28;20445;-69
2022/02/12 08:37:01;;;;;;;8.67;4.97;;;1.50;99.90;;;;;;4990079;28;20975;-69
2022/02/12 08:39:27;;;;;;;8.63;4.60;;;1.50;99.90;;;;;;4981938;28;20461;-69
2022/02/12 08:41:53;;;;;;;9.30;5.30;;;1.50;99.90;;;;;;4989506;28;20456;-68
2022/02/12 08:44:19;;;;;;;10.00;5.57;;;1.50;99.90;;;;;;4971147;28;20517;-69
2022/02/12 08:46:45;;;;;;;4.73;4.17;;;1.60;99.90;;;;;;4991048;28;20792;-69
2022/02/12 08:49:12;;;;;;;7.60;3.90;;;1.60;99.90;;;;;;4988394;28;20493;-68
2022/02/12 08:51:39;;;;;;;12.70;5.10;;;1.70;99.90;;;;;;4984837;28;20469;-69
2022/02/12 08:54:10;;;;;;;11.00;5.13;;;1.70;99.90;;;;;;4988838;28;20469;-69
2022/02/12 08:56:37;;;;;;;7.13;5.30;;;1.70;99.90;;;;;;4985487;28;20463;-68
2022/02/12 08:59:04;;;;;;;4.40;4.00;;;1.80;99.90;;;;;;4987874;28;20849;-68
2022/02/12 09:01:31;;;;;;;8.00;5.57;;;1.80;99.90;;;;;;4987506;28;20458;-69
2022/02/12 09:03:57;;;;;;;7.53;5.13;;;1.90;99.90;;;;;;4985650;28;20466;-69
2022/02/12 09:06:23;;;;;;;9.10;5.10;;;1.90;99.90;;;;;;4984448;28;20457;-69
2022/02/12 09:08:51;;;;;;;11.43;5.40;;;2.00;99.90;;;;;;5000411;28;20461;-69
2022/02/12 09:11:21;;;;;;;7.77;4.70;;;2.00;99.90;;;;;;4985769;28;20465;-70
2022/02/12 09:13:48;;;;;;;9.30;4.43;;;2.10;99.90;;;;;;4983866;28;20883;-69
2022/02/12 09:16:14;;;;;;;4.33;3.93;;;2.20;99.90;;;;;;4983756;28;20465;-69
2022/02/12 09:18:40;;;;;;;7.83;6.30;;;2.20;99.90;;;;;;4988717;28;20465;-69
2022/02/12 09:21:05;;;;;;;7.43;5.13;;;2.30;99.90;;;;;;4987448;28;20472;-69
2022/02/12 09:23:31;;;;;;;8.13;4.53;;;2.30;99.90;;;;;;4984187;28;20280;-69
2022/02/12 09:25:57;;;;;;;6.27;4.93;;;2.40;99.90;;;;;;4981400;28;20211;-68
2022/02/12 09:28:22;;;;;;;6.10;4.43;;;2.50;99.90;;;;;;4986145;28;20256;-69
2022/02/12 09:30:48;;;;;;;8.47;5.37;;;2.50;99.90;;;;;;4987087;28;20214;-68
2022/02/12 09:33:17;;;;;;;9.40;5.33;;;2.60;99.90;;;;;;4979529;28;20209;-68
2022/02/12 09:35:43;;;;;;;5.90;4.83;;;2.70;99.90;;;;;;4986923;28;20256;-69
2022/02/12 09:38:09;;;;;;;6.17;4.67;;;2.70;99.90;;;;;;4982430;28;20492;-70
2022/02/12 09:40:35;;;;;;;7.67;4.97;;;2.80;99.90;;;;;;4970656;28;20733;-68
2022/02/12 09:43:01;;;;;;;9.67;6.17;;;2.80;99.90;;;;;;4981928;28;20533;-69
2022/02/12 09:45:39;;;;;;;8.80;6.97;;;2.90;99.90;;;;;;4987099;28;20234;-69
2022/02/12 09:48:08;;;;;;;9.20;5.87;;;2.90;99.90;;;;;;4983678;28;20460;-69
2022/02/12 09:50:37;;;;;;;11.70;6.13;;;3.00;99.90;;;;;;4982216;28;20965;-69
2022/02/12 09:53:03;;;;;;;8.63;5.20;;;3.00;99.90;;;;;;4985039;28;20469;-69
2022/02/12 09:55:31;;;;;;;5.50;4.53;;;3.00;99.90;;;;;;4987945;28;20446;-69
2022/02/12 09:57:58;;;;;;;8.53;5.43;;;3.10;99.90;;;;;;4992906;28;20481;-69
2022/02/12 10:00:23;;;;;;;7.50;5.07;;;3.10;99.90;;;;;;4993275;28;20465;-69
2022/02/12 10:02:49;;;;;;;13.47;5.17;;;3.10;99.90;;;;;;4997052;28;20476;-69
2022/02/12 10:05:23;;;;;;;6.37;4.33;;;3.20;99.90;;;;;;4994602;28;20223;-68
2022/02/12 10:08:01;;;;;;;10.63;5.07;;;3.40;99.90;;;;;;4973198;28;20776;-68
2022/02/12 10:10:28;;;;;;;7.60;5.17;;;3.50;99.90;;;;;;4990616;28;20456;-69
2022/02/12 10:13:15;;;;;;;12.43;5.57;;;3.60;99.90;;;;;;4995432;28;20482;-69
2022/02/12 10:15:44;;;;;;;6.80;3.77;;;3.60;99.90;;;;;;4995830;28;20799;-68
2022/02/12 10:18:10;;;;;;;6.40;5.00;;;3.80;99.90;;;;;;4997581;28;20480;-69
2022/02/12 10:20:38;;;;;;;8.70;5.03;;;3.90;99.90;;;;;;5007044;28;20443;-69
2022/02/12 10:23:12;;;;;;;6.20;4.90;;;4.00;99.90;;;;;;5011519;28;20485;-69
2022/02/12 10:25:43;;;;;;;8.43;5.30;;;4.00;99.90;;;;;;5012432;28;20461;-70
2022/02/12 10:28:10;;;;;;;6.07;4.13;;;3.90;99.90;;;;;;4974505;28;20519;-67
2022/02/12 10:30:36;;;;;;;6.03;4.40;;;4.00;99.90;;;;;;5002875;28;20999;-69
2022/02/12 10:33:05;;;;;;;7.57;5.70;;;4.10;99.90;;;;;;4981494;28;20468;-69
2022/02/12 10:35:31;;;;;;;7.53;5.20;;;4.20;99.90;;;;;;4993905;28;20985;-69
2022/02/12 10:38:10;;;;;;;22.00;9.40;;;4.30;99.90;;;;;;4997495;28;20479;-69
2022/02/12 10:40:37;;;;;;;23.60;10.47;;;4.30;99.90;;;;;;4979905;28;20453;-69
2022/02/12 10:43:04;;;;;;;18.40;7.00;;;4.40;99.90;;;;;;4994349;28;20544;-69
2022/02/12 10:45:31;;;;;;;12.53;6.77;;;4.40;99.90;;;;;;4978754;28;20457;-68
2022/02/12 10:47:58;;;;;;;9.60;6.50;;;4.40;99.90;;;;;;5008919;28;20471;-68
2022/02/12 10:50:27;;;;;;;22.20;8.40;;;4.50;99.90;;;;;;5003166;28;20556;-68
2022/02/12 10:52:59;;;;;;;11.93;7.60;;;4.60;99.90;;;;;;5001445;28;20467;-69
2022/02/12 10:55:35;;;;;;;32.47;16.27;;;4.60;99.90;;;;;;4995788;28;20480;-69
2022/02/12 10:58:09;;;;;;;58.00;24.87;;;4.70;99.90;;;;;;5006293;28;20468;-68
2022/02/12 11:00:38;;;;;;;40.80;20.00;;;4.70;99.90;;;;;;4982462;28;20444;-69
2022/02/12 11:03:10;;;;;;;26.70;15.33;;;4.80;99.90;;;;;;4994084;28;20445;-68
2022/02/12 11:05:38;;;;;;;29.17;16.10;;;4.80;99.90;;;;;;4990372;28;20445;-69
2022/02/12 11:08:06;;;;;;;25.77;15.70;;;4.80;99.90;;;;;;4990664;28;20523;-68
2022/02/12 11:10:36;;;;;;;18.60;13.40;;;4.90;99.90;;;;;;4993844;28;20519;-68
2022/02/12 11:13:04;;;;;;;14.00;10.37;;;5.00;99.90;;;;;;4991009;28;20532;-68
2022/02/12 11:15:30;;;;;;;13.00;10.23;;;5.00;99.90;;;;;;4989941;28;20511;-68
2022/02/12 11:17:59;;;;;;;12.07;10.33;;;5.10;99.90;;;;;;4984169;28;21018;-68
2022/02/12 11:20:27;;;;;;;9.53;8.27;;;5.20;99.90;;;;;;4989753;28;20445;-68
2022/02/12 11:23:18;;;;;;;8.53;6.33;;;5.30;99.90;;;;;;4992629;28;20656;-69
2022/02/12 11:25:44;;;;;;;11.07;6.87;;;5.40;99.90;;;;;;5005123;28;20445;-69
2022/02/12 11:28:11;;;;;;;6.60;4.77;;;5.40;99.90;;;;;;4988241;28;20465;-68
2022/02/12 11:30:38;;;;;;;7.37;4.23;;;5.50;99.90;;;;;;5007847;28;20449;-68
2022/02/12 11:33:18;;;;;;;10.87;5.53;;;5.60;99.90;;;;;;4991019;28;20457;-69
2022/02/12 11:36:10;;;;;;;11.83;4.60;;;5.60;99.90;;;;;;4992739;28;20461;-69
2022/02/12 11:38:37;;;;;;;4.57;4.07;;;5.70;99.90;;;;;;4989730;28;20480;-69
2022/02/12 11:41:22;;;;;;;6.23;4.20;;;5.90;99.90;;;;;;5006323;28;20458;-68
2022/02/12 11:43:48;;;;;;;5.90;4.33;;;5.90;99.90;;;;;;4988317;28;20464;-69
2022/02/12 11:46:17;;;;;;;5.57;4.07;;;5.90;99.90;;;;;;4987424;28;20454;-69
2022/02/12 11:48:43;;;;;;;5.60;4.20;;;6.00;99.90;;;;;;4989591;28;20964;-69
2022/02/12 11:51:10;;;;;;;9.30;3.63;;;6.00;99.90;;;;;;4987776;28;20476;-69
2022/02/12 11:53:43;;;;;;;3.97;3.60;;;6.00;99.90;;;;;;4984026;28;20283;-68
2022/02/12 11:56:30;;;;;;;4.70;3.60;;;5.90;99.90;;;;;;4995549;28;20965;-69
2022/02/12 11:58:56;;;;;;;7.60;4.00;;;5.90;99.90;;;;;;4987470;28;20522;-67
2022/02/12 12:01:22;;;;;;;4.43;3.30;;;6.10;99.90;;;;;;4990273;28;20469;-69
2022/02/12 12:04:11;;;;;;;5.40;3.50;;;6.20;99.90;;;;;;4972508;28;20221;-69
2022/02/12 12:07:01;;;;;;;5.53;3.20;;;6.30;99.90;;;;;;4987208;28;20210;-68
2022/02/12 12:09:31;;;;;;;8.00;3.00;;;6.40;99.90;;;;;;5006821;28;20515;-68
2022/02/12 12:12:22;;;;;;;6.40;3.33;;;6.40;99.90;;;;;;4991545;28;20457;-69
2022/02/12 12:14:50;;;;;;;6.93;3.20;;;6.50;99.90;;;;;;4989443;28;20480;-68
2022/02/12 12:17:17;;;;;;;4.67;2.90;;;6.60;99.90;;;;;;4979006;28;20486;-68
2022/02/12 12:19:53;;;;;;;3.77;2.90;;;6.70;99.90;;;;;;4984070;28;20457;-68
2022/02/12 12:22:20;;;;;;;5.80;3.40;;;6.70;99.90;;;;;;4990502;28;20451;-68
2022/02/12 12:24:45;;;;;;;6.60;3.60;;;6.80;99.90;;;;;;4969917;28;20461;-68
2022/02/12 12:27:16;;;;;;;4.70;3.20;;;6.80;99.90;;;;;;4988965;28;20545;-69
2022/02/12 12:32:34;;;;;;;4.00;2.70;;;6.90;99.90;;;;;;5000626;28;20508;-68
2022/02/12 12:35:07;;;;;;;3.93;2.40;;;6.90;99.90;;;;;;4990234;28;20461;-68
2022/02/12 12:37:52;;;;;;;4.20;2.87;;;6.90;99.90;;;;;;4990739;28;20519;-69
2022/02/12 12:40:29;;;;;;;5.17;2.90;;;7.10;99.90;;;;;;4994160;28;20501;-69
2022/02/12 12:43:00;;;;;;;7.80;5.53;;;7.20;99.90;;;;;;4988694;28;20460;-68
2022/02/12 12:45:25;;;;;;;5.50;3.73;;;7.20;99.90;;;;;;4985742;28;20520;-68
2022/02/12 12:47:53;;;;;;;6.83;4.63;;;7.10;99.90;;;;;;4989793;28;20964;-69
2022/02/12 12:50:19;;;;;;;9.70;8.40;;;7.20;99.90;;;;;;4993156;28;20233;-68
2022/02/12 12:52:45;;;;;;;14.27;10.20;;;7.20;99.90;;;;;;4980538;28;20470;-68
2022/02/12 12:55:12;;;;;;;18.03;9.23;;;7.20;99.90;;;;;;4987571;28;20229;-68
2022/02/12 12:57:43;;;;;;;10.03;9.03;;;7.10;99.90;;;;;;4972755;28;20273;-69
2022/02/12 13:00:14;;;;;;;9.03;7.80;;;7.20;99.90;;;;;;4988140;28;20468;-68
2022/02/12 13:02:51;;;;;;;6.43;5.90;;;7.20;99.90;;;;;;4987628;28;20455;-69
2022/02/12 13:05:21;;;;;;;6.90;5.00;;;7.20;99.90;;;;;;4973133;28;20468;-69
2022/02/12 13:07:48;;;;;;;7.50;4.60;;;7.30;99.90;;;;;;4981731;28;20507;-69